createdAt,value
2023-03-24T00:01:29.830Z,99729.13
2023-03-24T00:03:59.240Z,99731.59
2023-03-24T00:06:27.986Z,99730.56
2023-03-24T00:08:56.612Z,99726.38
2023-03-24T00:11:26.427Z,99728.00
2023-03-24T00:13:58.535Z,99717.47
2023-03-24T00:16:28.625Z,99718.06
2023-03-24T00:18:57.922Z,99710.06
2023-03-24T00:21:27.520Z,99704.94
2023-03-24T00:23:58.406Z,99690.31
2023-03-24T00:26:27.158Z,99694.41
2023-03-24T00:28:57.203Z,99689.53
2023-03-24T00:31:27.326Z,99674.56
2023-03-24T00:33:55.936Z,99680.78
2023-03-24T00:36:26.832Z,99664.75
2023-03-24T00:38:55.942Z,99661.59
2023-03-24T00:41:26.812Z,99664.00
2023-03-24T00:43:58.441Z,99654.66
2023-03-24T00:46:29.100Z,99649.81
2023-03-24T00:49:02.633Z,99644.81
2023-03-24T00:51:35.229Z,99652.44
2023-03-24T00:54:03.958Z,99649.31
2023-03-24T00:56:37.871Z,99648.06
2023-03-24T00:59:10.471Z,99640.47
2023-03-24T01:01:41.530Z,99639.44
2023-03-24T01:04:11.242Z,99640.28
2023-03-24T01:06:41.175Z,99638.13
2023-03-24T01:09:10.703Z,99632.06
2023-03-24T01:11:41.821Z,99635.69
2023-03-24T01:14:11.152Z,99629.56
2023-03-24T01:16:42.112Z,99634.75
2023-03-24T01:19:11.094Z,99625.41
2023-03-24T01:21:42.272Z,99632.00
2023-03-24T01:24:13.636Z,99622.84
2023-03-24T01:26:42.280Z,99617.47
2023-03-24T01:29:10.954Z,99608.53
2023-03-24T01:31:41.019Z,99606.44
2023-03-24T01:34:09.759Z,99606.22
2023-03-24T01:36:38.348Z,99588.00
2023-03-24T01:39:06.960Z,99592.47
2023-03-24T01:41:38.804Z,99585.22
2023-03-24T01:44:31.139Z,99571.34
2023-03-24T01:47:04.226Z,99571.97
2023-03-24T01:49:37.596Z,99559.56
2023-03-24T01:52:11.437Z,99571.34
2023-03-24T01:54:45.348Z,99557.88
2023-03-24T01:57:18.651Z,99554.47
2023-03-24T01:59:52.994Z,99543.22
2023-03-24T02:02:23.163Z,99536.53
2023-03-24T02:04:56.064Z,99533.75
2023-03-24T02:07:33.102Z,99531.28
2023-03-24T02:10:02.863Z,99540.97
2023-03-24T02:12:32.504Z,99510.84
2023-03-24T02:15:02.018Z,99506.13
2023-03-24T02:17:54.696Z,99508.09
2023-03-24T02:20:55.793Z,99497.00
2023-03-24T02:23:49.695Z,99503.94
2023-03-24T02:26:49.476Z,99481.81
2023-03-24T02:29:54.925Z,99487.63
2023-03-24T02:32:52.731Z,99497.56
2023-03-24T02:35:43.056Z,99479.03
2023-03-24T02:38:56.369Z,99488.91
2023-03-24T02:41:30.308Z,99483.81
2023-03-24T02:44:06.601Z,99476.22
2023-03-24T02:46:43.168Z,99468.78
2023-03-24T02:49:23.861Z,99463.00
2023-03-24T02:51:59.273Z,99469.06
2023-03-24T02:54:36.635Z,99478.78
2023-03-24T02:57:10.884Z,99470.72
2023-03-24T02:59:45.455Z,99461.91
2023-03-24T03:02:18.939Z,99458.53
2023-03-24T03:04:52.399Z,99466.03
2023-03-24T03:07:25.180Z,99458.25
2023-03-24T03:10:00.214Z,99461.84
2023-03-24T03:12:34.637Z,99458.78
2023-03-24T03:15:07.959Z,99458.25
2023-03-24T03:17:42.528Z,99473.44
2023-03-24T03:20:17.646Z,99462.09
2023-03-24T03:22:51.988Z,99450.72
2023-03-24T03:25:25.545Z,99459.88
2023-03-24T03:27:59.023Z,99465.94
2023-03-24T03:30:33.823Z,99464.00
2023-03-24T03:33:05.596Z,99461.78
2023-03-24T03:35:39.341Z,99464.47
2023-03-24T03:38:15.717Z,99453.81
2023-03-24T03:40:51.690Z,99452.31
2023-03-24T03:43:21.818Z,99463.59
2023-03-24T03:45:50.653Z,99460.06
2023-03-24T03:48:19.950Z,99465.81
2023-03-24T03:50:49.733Z,99471.72
2023-03-24T03:53:26.920Z,99470.94
2023-03-24T03:55:57.026Z,99481.19
2023-03-24T03:58:28.917Z,99478.50
2023-03-24T04:00:57.704Z,99474.59
2023-03-24T04:03:44.939Z,99486.22
2023-03-24T04:06:27.086Z,99503.38
2023-03-24T04:09:04.042Z,99502.28
2023-03-24T04:11:47.851Z,99505.03
2023-03-24T04:14:44.683Z,99521.91
2023-03-24T04:17:24.580Z,99513.63
2023-03-24T04:20:05.679Z,99510.03
2023-03-24T04:22:50.818Z,99523.59
2023-03-24T04:25:29.718Z,99532.97
2023-03-24T04:28:05.399Z,99529.94
2023-03-24T04:30:43.997Z,99524.16
2023-03-24T04:33:18.466Z,99517.44
2023-03-24T04:35:52.432Z,99525.53
2023-03-24T04:38:25.772Z,99544.63
2023-03-24T04:40:57.524Z,99543.78
2023-03-24T04:43:36.580Z,99554.81
2023-03-24T04:46:08.918Z,99573.03
2023-03-24T04:48:37.872Z,99586.03
2023-03-24T04:51:07.520Z,99574.97
2023-03-24T04:53:36.056Z,99582.25
2023-03-24T04:56:27.474Z,99583.03
2023-03-24T04:58:56.630Z,99593.56
2023-03-24T05:01:30.477Z,99599.38
2023-03-24T05:03:59.736Z,99619.91
2023-03-24T05:06:28.448Z,99619.66
2023-03-24T05:08:59.069Z,99636.81
2023-03-24T05:11:27.962Z,99637.88
2023-03-24T05:13:56.883Z,99654.38
2023-03-24T05:16:26.916Z,99658.13
2023-03-24T05:18:55.612Z,99671.38
2023-03-24T05:21:24.196Z,99670.25
2023-03-24T05:23:52.741Z,99674.72
2023-03-24T05:26:21.396Z,99683.47
2023-03-24T05:28:49.978Z,99690.38
2023-03-24T05:31:18.627Z,99700.81
2023-03-24T05:33:48.631Z,99711.34
2023-03-24T05:36:17.320Z,99721.00
2023-03-24T05:38:45.881Z,99724.84
2023-03-24T05:41:14.446Z,99732.06
2023-03-24T05:43:43.003Z,99730.13
2023-03-24T05:46:11.691Z,99737.72
2023-03-24T05:48:40.309Z,99739.47
2023-03-24T05:51:10.707Z,99748.88
2023-03-24T05:53:39.255Z,99750.03
2023-03-24T05:56:11.917Z,99764.16
2023-03-24T05:58:40.522Z,99768.88
2023-03-24T06:01:10.733Z,99768.63
2023-03-24T06:03:40.592Z,99763.47
2023-03-24T06:06:14.882Z,99773.13
2023-03-24T06:08:45.181Z,99777.78
2023-03-24T06:11:14.073Z,99779.22
2023-03-24T06:13:42.689Z,99783.66
2023-03-24T06:16:12.004Z,99781.75
2023-03-24T06:18:42.839Z,99781.72
2023-03-24T06:21:12.785Z,99790.88
2023-03-24T06:23:41.588Z,99797.38
2023-03-24T06:26:12.598Z,99788.72
2023-03-24T06:28:42.305Z,99803.38
2023-03-24T06:31:15.158Z,99807.84
2023-03-24T06:33:43.953Z,99812.41
2023-03-24T06:36:14.814Z,99817.38
2023-03-24T06:38:44.026Z,99819.97
2023-03-24T06:41:12.898Z,99820.53
2023-03-24T06:43:41.432Z,99816.88
2023-03-24T06:46:10.981Z,99820.00
2023-03-24T06:48:39.809Z,99823.84
2023-03-24T06:51:08.963Z,99827.38
2023-03-24T06:53:41.284Z,99835.25
2023-03-24T06:56:10.174Z,99830.53
2023-03-24T06:58:38.729Z,99831.34
2023-03-24T07:01:07.455Z,99828.31
2023-03-24T07:03:36.811Z,99836.22
2023-03-24T07:06:07.546Z,99823.00
2023-03-24T07:08:38.600Z,99825.91
2023-03-24T07:11:10.243Z,99825.00
2023-03-24T07:13:38.973Z,99826.31
2023-03-24T07:16:08.281Z,99834.66
2023-03-24T07:18:37.091Z,99831.97
2023-03-24T07:21:05.949Z,99830.66
2023-03-24T07:23:34.842Z,99833.13
2023-03-24T07:26:03.413Z,99849.38
2023-03-24T07:28:33.381Z,99839.66
2023-03-24T07:31:04.713Z,99853.22
2023-03-24T07:33:33.512Z,99855.22
2023-03-24T07:36:02.119Z,99865.28
2023-03-24T07:38:31.058Z,99859.53
2023-03-24T07:41:00.388Z,99851.91
2023-03-24T07:43:29.051Z,99856.34
2023-03-24T07:45:59.025Z,99863.69
2023-03-24T07:48:27.613Z,99859.81
2023-03-24T07:50:56.400Z,99855.97
2023-03-24T07:53:25.018Z,99868.22
2023-03-24T07:55:53.582Z,99853.91
2023-03-24T07:58:22.388Z,99882.28
2023-03-24T08:00:51.166Z,99879.59
2023-03-24T08:03:28.107Z,99866.47
2023-03-24T08:05:57.148Z,99885.22
2023-03-24T08:08:25.768Z,99891.59
2023-03-24T08:10:54.042Z,99891.16
2023-03-24T08:13:22.575Z,99903.75
2023-03-24T08:15:51.418Z,99900.44
2023-03-24T08:18:21.974Z,99903.53
2023-03-24T08:20:51.535Z,99912.25
2023-03-24T08:23:20.119Z,99909.59
2023-03-24T08:25:50.261Z,99922.34
2023-03-24T08:28:18.983Z,99917.66
2023-03-24T08:30:48.071Z,99910.41
2023-03-24T08:33:17.812Z,99917.34
2023-03-24T08:35:47.785Z,99909.88
2023-03-24T08:38:18.770Z,99916.22
2023-03-24T08:40:49.051Z,99910.00
2023-03-24T08:43:17.636Z,99907.41
2023-03-24T08:45:46.206Z,99910.22
2023-03-24T08:48:14.624Z,99909.66
2023-03-24T08:50:43.681Z,99909.41
2023-03-24T08:53:13.667Z,99907.06
2023-03-24T08:55:43.686Z,99906.22
2023-03-24T08:58:15.732Z,99906.75
2023-03-24T09:00:45.623Z,99923.88
2023-03-24T09:03:18.526Z,99916.16
2023-03-24T09:05:47.969Z,99916.47
2023-03-24T09:08:19.959Z,99918.75
2023-03-24T09:10:48.567Z,99920.59
2023-03-24T09:13:17.239Z,99930.03
2023-03-24T09:15:48.949Z,99926.50
2023-03-24T09:18:17.911Z,99922.44
2023-03-24T09:20:47.339Z,99916.41
2023-03-24T09:23:18.089Z,99923.38
2023-03-24T09:25:47.182Z,99925.16
2023-03-24T09:28:16.289Z,99928.03
2023-03-24T09:30:45.214Z,99932.59
2023-03-24T09:33:14.229Z,99928.25
2023-03-24T09:35:43.084Z,99933.22
2023-03-24T09:38:12.403Z,99932.63
2023-03-24T09:40:44.062Z,99940.66
2023-03-24T09:43:23.840Z,99950.28
2023-03-24T09:45:54.995Z,99941.19
2023-03-24T09:48:32.504Z,99941.47
2023-03-24T09:51:05.965Z,99951.38
2023-03-24T09:53:43.801Z,99951.41
2023-03-24T09:56:18.480Z,99948.44
2023-03-24T09:58:54.553Z,99958.94
2023-03-24T10:01:26.457Z,99966.97
2023-03-24T10:03:59.278Z,99966.69
2023-03-24T10:06:30.781Z,99966.47
2023-03-24T10:09:18.470Z,99966.44
2023-03-24T10:11:56.265Z,99982.53
2023-03-24T10:14:40.523Z,99975.94
2023-03-24T10:17:19.559Z,99993.41
2023-03-24T10:19:59.904Z,99982.56
2023-03-24T10:22:35.591Z,99991.50
2023-03-24T10:25:16.678Z,99987.59
2023-03-24T10:27:52.408Z,100003.66
2023-03-24T10:30:24.973Z,99990.06
2023-03-24T10:32:54.776Z,99987.84
2023-03-24T10:35:28.661Z,100004.38
2023-03-24T10:38:00.924Z,99991.84
2023-03-24T10:40:33.869Z,99989.97
2023-03-24T10:43:09.386Z,99986.91
2023-03-24T10:45:40.944Z,100000.81
2023-03-24T10:48:10.400Z,100007.56
2023-03-24T10:50:44.516Z,100010.00
2023-03-24T10:53:20.652Z,100018.53
2023-03-24T10:55:50.722Z,100015.84
2023-03-24T10:58:30.307Z,100013.56
2023-03-24T11:01:01.491Z,100016.13
2023-03-24T11:03:32.885Z,100008.69
2023-03-24T11:06:03.967Z,99994.22
2023-03-24T11:08:37.900Z,100006.19
2023-03-24T11:11:29.690Z,99999.78
2023-03-24T11:14:02.179Z,99993.72
2023-03-24T11:16:33.412Z,99999.16
2023-03-24T11:19:06.815Z,99990.63
2023-03-24T11:21:38.154Z,99987.78
2023-03-24T11:24:13.491Z,99998.25
2023-03-24T11:26:46.843Z,99988.47
2023-03-24T11:29:19.887Z,99993.47
2023-03-24T11:31:55.189Z,100000.25
2023-03-24T11:34:26.324Z,99996.81
2023-03-24T11:36:57.335Z,100003.63
2023-03-24T11:39:26.922Z,100009.22
2023-03-24T11:42:15.459Z,100011.19
2023-03-24T11:44:49.915Z,100005.56
2023-03-24T11:47:25.787Z,100003.34
2023-03-24T11:50:06.825Z,100011.69
2023-03-24T11:52:41.511Z,99995.56
2023-03-24T11:55:17.970Z,100002.47
2023-03-24T11:57:56.471Z,99990.56
2023-03-24T12:00:34.827Z,99996.91
2023-03-24T12:03:49.855Z,100005.50
2023-03-24T12:06:41.658Z,99993.69
2023-03-24T12:09:22.989Z,99988.78
2023-03-24T12:12:22.481Z,99984.91
2023-03-24T12:15:27.144Z,99980.53
2023-03-24T12:18:11.623Z,99991.44
2023-03-24T12:20:46.151Z,99977.25
2023-03-24T12:23:19.728Z,99978.13
2023-03-24T12:26:06.376Z,99977.25
2023-03-24T12:29:30.725Z,99960.56
2023-03-24T12:32:27.566Z,99963.41
2023-03-24T12:35:41.349Z,99964.81
2023-03-24T12:38:34.375Z,99957.72
2023-03-24T12:41:18.090Z,99951.00
2023-03-24T12:44:03.571Z,99948.19
2023-03-24T12:46:47.760Z,99952.44
2023-03-24T12:49:43.698Z,99960.38
2023-03-24T12:52:43.866Z,99949.88
2023-03-24T12:55:18.013Z,99945.09
2023-03-24T12:57:52.990Z,99949.00
2023-03-24T13:00:27.205Z,99954.75
2023-03-24T13:02:59.176Z,99947.59
2023-03-24T13:05:33.124Z,99953.41
2023-03-24T13:08:06.795Z,99953.19
2023-03-24T13:10:40.534Z,99947.06
2023-03-24T13:13:16.415Z,99946.19
2023-03-24T13:15:49.138Z,99939.28
2023-03-24T13:18:32.807Z,99940.91
2023-03-24T13:21:08.951Z,99938.72
2023-03-24T13:23:47.971Z,99943.16
2023-03-24T13:26:27.404Z,99944.22
2023-03-24T13:29:24.034Z,99949.00
2023-03-24T13:31:57.721Z,99956.16
2023-03-24T13:34:31.261Z,99961.34
2023-03-24T13:37:04.277Z,99957.25
2023-03-24T13:39:37.388Z,99955.69
2023-03-24T13:42:06.542Z,99955.91
2023-03-24T13:44:40.910Z,99955.56
2023-03-24T13:47:15.538Z,99944.00
2023-03-24T13:50:01.363Z,99940.94
2023-03-24T13:52:35.749Z,99926.91
2023-03-24T13:55:16.198Z,99934.28
2023-03-24T13:57:55.591Z,99919.16
2023-03-24T14:00:25.517Z,99919.97
2023-03-24T14:02:55.519Z,99923.56
2023-03-24T14:05:59.287Z,99920.59
2023-03-24T14:08:44.821Z,99927.91
2023-03-24T14:12:08.765Z,99943.41
2023-03-24T14:14:57.882Z,99972.56
2023-03-24T14:17:27.930Z,99965.00
2023-03-24T14:20:13.704Z,99953.72
2023-03-24T14:22:48.400Z,99938.69
2023-03-24T14:25:27.367Z,99957.16
2023-03-24T14:28:08.754Z,99943.13
2023-03-24T14:30:40.810Z,99948.38
2023-03-24T14:33:27.022Z,99953.16
2023-03-24T14:36:04.997Z,99969.13
2023-03-24T14:38:38.812Z,99988.44
2023-03-24T14:41:13.828Z,99976.47
2023-03-24T14:44:00.802Z,99970.34
2023-03-24T14:46:40.360Z,99965.72
2023-03-24T14:49:24.313Z,99954.25
2023-03-24T14:52:01.710Z,99957.66
2023-03-24T14:54:38.132Z,99960.66
2023-03-24T14:57:08.922Z,99959.16
2023-03-24T14:59:46.961Z,99955.34
2023-03-24T15:02:29.033Z,99958.13
2023-03-24T15:05:24.953Z,99952.03
2023-03-24T15:08:15.794Z,99942.13
2023-03-24T15:10:50.750Z,99946.47
2023-03-24T15:13:36.880Z,99938.91
2023-03-24T15:16:09.076Z,99939.88
2023-03-24T15:18:57.654Z,99931.16
2023-03-24T15:21:35.000Z,99934.50
2023-03-24T15:24:05.437Z,99929.38
2023-03-24T15:26:33.990Z,99930.66
2023-03-24T15:29:06.703Z,99923.34
2023-03-24T15:31:35.399Z,99925.09
2023-03-24T15:34:06.394Z,99905.00
2023-03-24T15:36:44.999Z,99914.53
2023-03-24T15:39:22.018Z,99915.38
2023-03-24T15:41:53.819Z,99935.59
2023-03-24T15:44:26.562Z,99968.19
2023-03-24T15:46:58.745Z,100017.56
2023-03-24T15:49:31.806Z,99995.22
2023-03-24T15:52:05.319Z,99980.31
2023-03-24T15:54:41.828Z,99983.25
2023-03-24T15:57:19.215Z,99943.41
2023-03-24T15:59:50.567Z,99954.66
2023-03-24T16:02:31.328Z,99939.28
2023-03-24T16:07:37.761Z,99937.03
2023-03-24T16:10:08.778Z,99939.53
2023-03-24T16:12:38.248Z,99947.03
2023-03-24T16:15:08.193Z,99939.28
2023-03-24T16:17:36.517Z,99945.41
2023-03-24T16:20:08.999Z,99940.72
2023-03-24T16:22:38.657Z,99930.50
2023-03-24T16:25:08.670Z,99934.41
2023-03-24T16:27:37.007Z,99948.03
2023-03-24T16:30:21.260Z,99931.66
2023-03-24T16:32:49.704Z,99948.69
2023-03-24T16:35:18.515Z,99947.00
2023-03-24T16:37:48.282Z,99945.34
2023-03-24T16:40:23.396Z,99944.53
2023-03-24T16:42:51.682Z,99948.94
2023-03-24T16:45:20.154Z,99952.75
2023-03-24T16:47:48.472Z,99960.06
2023-03-24T16:50:31.301Z,99958.03
2023-03-24T16:53:01.654Z,99957.81
2023-03-24T16:55:30.442Z,99952.09
2023-03-24T16:57:59.014Z,99956.47
2023-03-24T17:00:30.000Z,99953.91
2023-03-24T17:03:00.369Z,99951.22
2023-03-24T17:05:32.240Z,99946.19
2023-03-24T17:08:02.327Z,99953.84
2023-03-24T17:10:31.391Z,99951.22
2023-03-24T17:12:59.880Z,99956.72
2023-03-24T17:15:31.652Z,99962.47
2023-03-24T17:18:00.935Z,99956.59
2023-03-24T17:20:29.733Z,99956.13
2023-03-24T17:22:58.598Z,99959.31
2023-03-24T17:25:29.334Z,99958.81
2023-03-24T17:27:58.239Z,99951.88
2023-03-24T17:30:29.280Z,99957.25
2023-03-24T17:32:58.334Z,99963.69
2023-03-24T17:35:27.283Z,99963.38
2023-03-24T17:37:55.844Z,99959.31
2023-03-24T17:40:24.431Z,99958.31
2023-03-24T17:42:54.117Z,99955.22
2023-03-24T17:45:22.654Z,99962.97
2023-03-24T17:47:51.243Z,99967.81
2023-03-24T17:50:19.693Z,99967.03
2023-03-24T17:52:49.230Z,99968.69
2023-03-24T17:55:19.229Z,99960.91
2023-03-24T17:57:47.597Z,99969.25
2023-03-24T18:00:17.950Z,99964.28
2023-03-24T18:02:47.140Z,99977.59
2023-03-24T18:05:16.034Z,99978.16
2023-03-24T18:07:44.528Z,99980.06
2023-03-24T18:10:13.891Z,99977.00
2023-03-24T18:12:42.367Z,99976.69
2023-03-24T18:15:11.950Z,99972.69
2023-03-24T18:17:41.990Z,99975.03
2023-03-24T18:20:12.263Z,99976.31
2023-03-24T18:22:41.208Z,99975.66
2023-03-24T18:25:13.875Z,99974.91
2023-03-24T18:27:42.489Z,99970.97
2023-03-24T18:30:14.838Z,99963.22
2023-03-24T18:32:44.661Z,99959.63
2023-03-24T18:35:17.152Z,99966.09
2023-03-24T18:37:46.124Z,99967.81
2023-03-24T18:40:15.827Z,99977.56
2023-03-24T18:42:44.211Z,99978.06
2023-03-24T18:45:17.512Z,99973.47
2023-03-24T18:47:48.142Z,99965.88
2023-03-24T18:50:16.848Z,99970.19
2023-03-24T18:52:46.010Z,99966.59
2023-03-24T18:55:15.828Z,99966.31
2023-03-24T18:57:44.127Z,99962.28
2023-03-24T19:00:14.503Z,99961.97
2023-03-24T19:02:43.558Z,99962.94
2023-03-24T19:05:15.377Z,99947.38
2023-03-24T19:07:45.755Z,99952.03
2023-03-24T19:10:14.451Z,99949.81
2023-03-24T19:12:43.006Z,99944.47
2023-03-24T19:15:13.667Z,99945.19
2023-03-24T19:17:42.070Z,99947.53
2023-03-24T19:20:13.920Z,99940.53
2023-03-24T19:22:42.265Z,99943.66
2023-03-24T19:25:10.867Z,99943.78
2023-03-24T19:27:39.173Z,99951.47
2023-03-24T19:30:09.417Z,99945.97
2023-03-24T19:32:37.766Z,99953.44
2023-03-24T19:35:08.289Z,99947.91
2023-03-24T19:37:38.119Z,99952.09
2023-03-24T19:40:11.644Z,99959.59
2023-03-24T19:42:41.988Z,99961.69
2023-03-24T19:45:12.718Z,99964.53
2023-03-24T19:47:41.056Z,99969.53
2023-03-24T19:50:11.272Z,99975.47
2023-03-24T19:52:43.092Z,99972.28
2023-03-24T19:55:12.985Z,99969.59
2023-03-24T19:57:41.686Z,99964.66
2023-03-24T20:00:14.330Z,99965.06
2023-03-24T20:02:43.373Z,99967.03
2023-03-24T20:05:12.126Z,99967.09
2023-03-24T20:07:42.051Z,99967.06
2023-03-24T20:10:11.532Z,99960.25
2023-03-24T20:12:40.320Z,99961.38
2023-03-24T20:15:09.754Z,99970.75
2023-03-24T20:17:39.546Z,99967.97
2023-03-24T20:20:10.373Z,99965.78
2023-03-24T20:22:42.060Z,99957.63
2023-03-24T20:25:13.358Z,99970.06
2023-03-24T20:27:42.044Z,99967.34
2023-03-24T20:30:12.658Z,99969.78
2023-03-24T20:32:40.969Z,99961.84
2023-03-24T20:35:10.222Z,99956.75
2023-03-24T20:37:38.491Z,99957.31
2023-03-24T20:40:10.406Z,99950.00
2023-03-24T20:42:40.375Z,99956.38
2023-03-24T20:45:11.834Z,99951.53
2023-03-24T20:47:40.117Z,99950.94
2023-03-24T20:50:10.552Z,99945.47
2023-03-24T20:52:38.984Z,99944.19
2023-03-24T20:55:10.015Z,99948.50
2023-03-24T20:57:39.690Z,99944.88
2023-03-24T21:00:13.774Z,99938.97
2023-03-24T21:02:43.505Z,99945.75
2023-03-24T21:05:12.252Z,99945.78
2023-03-24T21:07:43.772Z,99945.31
2023-03-24T21:10:12.588Z,99951.63
2023-03-24T21:12:52.765Z,99949.53
2023-03-24T21:15:25.002Z,99949.16
2023-03-24T21:17:53.808Z,99952.50
2023-03-24T21:20:22.535Z,99951.00
2023-03-24T21:22:55.066Z,99964.56
2023-03-24T21:25:25.720Z,99963.09
2023-03-24T21:27:56.079Z,99958.78
2023-03-24T21:30:26.153Z,99961.84
2023-03-24T21:32:56.653Z,99955.97
2023-03-24T21:35:26.032Z,99957.19
2023-03-24T21:37:54.469Z,99954.53
2023-03-24T21:40:25.451Z,99945.97
2023-03-24T21:42:55.841Z,99949.25
2023-03-24T21:45:24.935Z,99950.44
2023-03-24T21:47:55.880Z,99942.88
2023-03-24T21:50:24.269Z,99945.88
2023-03-24T21:52:54.823Z,99950.78
2023-03-24T21:55:26.914Z,99937.00
2023-03-24T21:57:57.730Z,99941.06
2023-03-24T22:00:30.031Z,99951.56
2023-03-24T22:02:58.481Z,99953.84
2023-03-24T22:05:29.133Z,99939.47
2023-03-24T22:07:57.442Z,99954.56
2023-03-24T22:10:30.005Z,99949.47
2023-03-24T22:12:59.635Z,99955.84
2023-03-24T22:15:29.413Z,99953.94
2023-03-24T22:17:59.161Z,99944.56
2023-03-24T22:20:28.238Z,99947.34
2023-03-24T22:22:56.608Z,99950.56
2023-03-24T22:25:25.335Z,99949.25
2023-03-24T22:27:56.053Z,99957.25
2023-03-24T22:30:25.767Z,99952.63
2023-03-24T22:32:54.119Z,99960.84
2023-03-24T22:35:23.350Z,99960.34
2023-03-24T22:37:51.725Z,99970.03
2023-03-24T22:40:20.181Z,99963.09
2023-03-24T22:42:48.414Z,99974.25
2023-03-24T22:45:16.936Z,99965.88
2023-03-24T22:47:46.641Z,99971.06
2023-03-24T22:50:14.981Z,99972.00
2023-03-24T22:52:43.204Z,99970.50
2023-03-24T22:55:11.735Z,99962.63
2023-03-24T22:57:40.046Z,99958.22
2023-03-24T23:00:11.037Z,99948.38
2023-03-24T23:02:39.639Z,99957.53
2023-03-24T23:05:10.388Z,99955.28
2023-03-24T23:07:39.310Z,99953.22
2023-03-24T23:10:08.704Z,99959.00
2023-03-24T23:12:37.669Z,99961.13
2023-03-24T23:15:07.781Z,99968.22
2023-03-24T23:17:36.123Z,99962.00
2023-03-24T23:20:07.547Z,99956.34
2023-03-24T23:22:38.323Z,99962.19
2023-03-24T23:25:08.129Z,99967.19
2023-03-24T23:27:37.990Z,99968.31
2023-03-24T23:30:10.002Z,99969.31
2023-03-24T23:32:39.732Z,99968.28
2023-03-24T23:35:10.524Z,99965.09
2023-03-24T23:37:40.539Z,99965.06
2023-03-24T23:40:14.966Z,99975.22
2023-03-24T23:42:47.298Z,99979.84
2023-03-24T23:45:18.694Z,99979.88
2023-03-24T23:47:50.311Z,99969.41
2023-03-24T23:50:19.640Z,99974.94
2023-03-24T23:52:49.369Z,99979.50
2023-03-24T23:55:20.987Z,99979.78
2023-03-24T23:57:49.635Z,99988.53
